createdAt,value
2023-03-17T12:02:42.744Z,113.50
2023-03-17T12:04:55.059Z,122.00
2023-03-17T12:06:32.702Z,117.00
2023-03-17T12:08:44.333Z,116.25
2023-03-17T12:11:02.758Z,101.25
2023-03-17T12:13:12.907Z,97.00
2023-03-17T12:14:54.776Z,102.80
2023-03-17T12:16:50.454Z,102.40
2023-03-17T12:18:46.585Z,109.20
2023-03-17T12:20:30.629Z,94.80
2023-03-17T12:22:08.630Z,104.00
2023-03-17T12:24:18.952Z,90.80
2023-03-17T12:26:16.675Z,87.50
2023-03-17T12:28:28.600Z,80.75
2023-03-17T12:30:23.202Z,76.00
2023-03-17T12:32:27.915Z,97.25
2023-03-17T12:34:03.399Z,65.50
2023-03-17T12:35:39.729Z,63.00
2023-03-17T12:37:12.892Z,55.25
2023-03-17T12:39:31.096Z,53.00
2023-03-17T12:41:21.150Z,52.00
2023-03-17T12:43:23.434Z,52.50
2023-03-17T12:45:43.498Z,53.75
2023-03-17T12:47:52.470Z,51.50
2023-03-17T12:49:33.167Z,49.00
2023-03-17T12:51:27.899Z,51.00
2023-03-17T12:53:29.871Z,54.50
2023-03-17T12:55:06.710Z,59.00
2023-03-17T12:56:38.749Z,58.00
2023-03-17T12:59:00.845Z,63.25
2023-03-17T13:00:34.104Z,67.50
2023-03-17T13:02:54.244Z,67.75
2023-03-17T13:04:38.077Z,72.50
2023-03-17T13:08:41.186Z,74.75
2023-03-17T13:10:22.578Z,80.25
2023-03-17T13:11:59.909Z,79.00
2023-03-17T13:13:48.199Z,76.50
2023-03-17T13:15:33.217Z,80.50
2023-03-17T13:17:51.446Z,77.67
2023-03-17T13:19:25.629Z,82.25
2023-03-17T13:20:57.771Z,78.75
2023-03-17T13:22:42.604Z,90.00
2023-03-17T13:24:43.268Z,96.80
2023-03-17T13:26:24.252Z,100.60
2023-03-17T13:28:26.332Z,92.00
2023-03-17T13:29:59.138Z,96.00
2023-03-17T13:31:36.841Z,96.60
2023-03-17T13:33:12.688Z,104.00
2023-03-17T13:35:11.337Z,113.50
2023-03-17T13:37:02.678Z,111.00
2023-03-17T13:38:37.813Z,101.00
2023-03-17T13:40:39.169Z,107.00
2023-03-17T13:42:34.916Z,113.25
2023-03-17T13:44:24.847Z,112.00
2023-03-17T13:46:02.977Z,115.00
2023-03-17T13:47:36.708Z,109.50
2023-03-17T13:49:26.190Z,111.75
2023-03-17T13:51:14.471Z,117.25
2023-03-17T13:52:58.052Z,126.50
2023-03-17T13:54:35.102Z,114.00
2023-03-17T13:56:23.788Z,117.00
2023-03-17T13:58:11.168Z,116.50
2023-03-17T14:00:27.735Z,117.00
2023-03-17T14:02:30.174Z,115.75
2023-03-17T14:04:06.280Z,119.00
2023-03-17T14:05:38.318Z,128.25
2023-03-17T14:07:17.091Z,116.25
2023-03-17T14:08:54.526Z,119.75
2023-03-17T14:10:28.285Z,119.50
2023-03-17T14:12:00.706Z,122.75
2023-03-17T14:13:54.534Z,123.75
2023-03-17T14:15:46.660Z,122.75
2023-03-17T14:17:28.246Z,117.75
2023-03-17T14:19:32.519Z,119.25
2023-03-17T14:21:10.493Z,126.75
2023-03-17T14:22:59.246Z,125.75
2023-03-17T14:24:39.299Z,121.00
2023-03-17T14:26:40.553Z,125.25
2023-03-17T14:28:37.578Z,116.50
2023-03-17T14:30:56.140Z,111.25
2023-03-17T14:32:34.398Z,113.25
2023-03-17T14:36:39.329Z,112.50
2023-03-17T14:38:47.201Z,111.00
2023-03-17T14:40:45.638Z,111.60
2023-03-17T14:42:32.065Z,105.60
2023-03-17T14:44:08.722Z,103.80
2023-03-17T14:45:51.975Z,98.80
2023-03-17T14:47:24.623Z,92.40
2023-03-17T14:49:25.618Z,93.60
2023-03-17T14:51:05.601Z,95.20
2023-03-17T14:52:41.281Z,86.80
2023-03-17T14:54:26.114Z,87.00
2023-03-17T14:56:01.373Z,82.25
2023-03-17T14:57:33.610Z,90.00
2023-03-17T14:59:07.448Z,75.25
2023-03-17T15:00:46.316Z,84.50
2023-03-17T15:02:28.699Z,72.75
2023-03-17T15:04:53.196Z,73.50
2023-03-17T15:06:26.994Z,73.25
2023-03-17T15:07:59.082Z,69.75
2023-03-17T15:09:33.726Z,62.50
2023-03-17T15:11:05.942Z,66.75
2023-03-17T15:12:38.337Z,68.50
2023-03-17T15:14:13.992Z,53.75
2023-03-17T15:15:50.824Z,54.25
2023-03-17T15:17:29.225Z,49.50
2023-03-17T15:19:34.878Z,51.25
2023-03-17T15:21:33.528Z,52.50
2023-03-17T15:23:41.338Z,53.50
2023-03-17T15:28:19.379Z,43.20
2023-03-17T15:30:19.393Z,38.80
2023-03-17T15:31:52.920Z,38.40
2023-03-17T15:34:01.378Z,41.40
2023-03-17T15:35:38.525Z,39.40
2023-03-17T15:39:17.256Z,33.60
2023-03-17T15:41:17.456Z,30.20
2023-03-17T15:43:18.131Z,34.20
2023-03-17T15:44:55.604Z,29.80
2023-03-17T15:46:32.181Z,29.00
2023-03-17T15:48:04.157Z,24.00
2023-03-17T15:49:36.745Z,29.60
2023-03-17T15:51:13.377Z,28.20
2023-03-17T15:52:45.986Z,26.20
2023-03-17T15:54:18.609Z,23.00
2023-03-17T15:55:53.461Z,25.40
2023-03-17T15:57:33.170Z,22.20
2023-03-17T15:59:08.460Z,23.00
2023-03-17T16:00:45.836Z,23.80
2023-03-17T16:02:35.177Z,24.00
2023-03-17T16:04:31.651Z,22.60
2023-03-17T16:06:05.047Z,18.80
2023-03-17T16:07:36.997Z,23.00
2023-03-17T16:09:21.753Z,17.00
2023-03-17T16:10:58.325Z,18.80
2023-03-17T16:12:30.301Z,17.60
2023-03-17T16:14:02.318Z,19.20
2023-03-17T16:15:39.519Z,20.20
2023-03-17T16:17:28.879Z,19.40
2023-03-17T16:19:01.356Z,17.80
2023-03-17T16:20:39.227Z,20.80
2023-03-17T16:22:38.696Z,22.60
2023-03-17T16:25:01.832Z,16.20
2023-03-17T16:28:14.453Z,19.60
2023-03-17T16:29:49.642Z,17.00
2023-03-17T16:31:26.076Z,18.40
2023-03-17T16:33:47.904Z,16.00
2023-03-17T16:35:23.944Z,15.00
2023-03-17T16:37:03.257Z,17.20
2023-03-17T16:38:35.254Z,15.80
2023-03-17T16:40:17.374Z,13.00
2023-03-17T16:41:52.259Z,16.60
2023-03-17T16:43:56.222Z,10.40
2023-03-17T16:45:29.946Z,16.20
2023-03-17T16:47:02.086Z,14.00
2023-03-17T16:48:34.429Z,13.80
2023-03-17T16:50:45.403Z,12.00
2023-03-17T16:52:42.572Z,12.80
2023-03-17T16:54:17.087Z,14.80
2023-03-17T16:56:44.733Z,15.00
2023-03-17T16:58:42.220Z,13.00
2023-03-17T17:00:26.344Z,12.60
2023-03-17T17:02:27.096Z,12.60
2023-03-17T17:04:33.291Z,14.20
2023-03-17T17:06:07.256Z,13.20
2023-03-17T17:07:40.878Z,13.40
2023-03-17T17:09:37.866Z,16.00
2023-03-17T17:11:16.513Z,14.00
2023-03-17T17:12:51.374Z,13.00
2023-03-17T17:14:24.325Z,12.60
2023-03-17T17:16:00.027Z,13.40
2023-03-17T17:17:32.061Z,14.00
2023-03-17T17:19:04.439Z,13.00
2023-03-17T17:20:39.463Z,10.60
2023-03-17T17:23:01.522Z,11.80
2023-03-17T17:24:38.880Z,12.00
2023-03-17T17:26:19.738Z,11.00
2023-03-17T17:30:01.137Z,10.80
2023-03-17T17:31:33.356Z,5.40
2023-03-17T17:33:05.460Z,12.80
2023-03-17T17:34:37.488Z,10.00
2023-03-17T17:36:34.500Z,10.60
2023-03-17T17:38:08.148Z,12.80
2023-03-17T17:39:44.976Z,10.00
2023-03-17T17:41:22.508Z,11.40
2023-03-17T17:42:57.925Z,14.80
2023-03-17T17:44:54.537Z,12.40
2023-03-17T17:46:26.622Z,14.20
2023-03-17T17:47:58.574Z,13.80
2023-03-17T17:49:32.454Z,15.40
2023-03-17T17:51:11.897Z,7.40
2023-03-17T17:52:46.070Z,12.00
2023-03-17T17:54:25.131Z,10.40
2023-03-17T17:55:59.949Z,12.00
2023-03-17T17:57:34.937Z,12.40
2023-03-17T17:59:11.748Z,13.60
2023-03-17T18:01:19.367Z,14.20
2023-03-17T18:02:53.329Z,12.60
2023-03-17T18:04:26.178Z,14.20
2023-03-17T18:05:59.642Z,13.40
2023-03-17T18:07:34.892Z,13.40
2023-03-17T18:09:09.007Z,12.00
2023-03-17T18:10:43.598Z,11.20
2023-03-17T18:12:19.444Z,12.00
2023-03-17T18:13:53.492Z,12.40
2023-03-17T18:15:26.640Z,12.80
2023-03-17T18:16:58.672Z,15.80
2023-03-17T18:18:35.296Z,12.80
2023-03-17T18:20:14.675Z,11.00
2023-03-17T18:22:13.654Z,11.40
2023-03-17T18:23:50.110Z,13.40
2023-03-17T18:27:49.330Z,14.00
2023-03-17T18:29:22.071Z,11.80
2023-03-17T18:31:46.710Z,11.00
2023-03-17T18:33:21.027Z,10.80
2023-03-17T18:34:55.143Z,12.60
2023-03-17T18:39:36.225Z,14.00
2023-03-17T18:41:37.129Z,12.20
2023-03-17T18:43:13.745Z,11.00
2023-03-17T18:44:48.825Z,14.20
2023-03-17T18:46:23.885Z,10.00
2023-03-17T18:48:25.053Z,13.00
2023-03-17T18:49:58.269Z,13.00
2023-03-17T18:51:37.513Z,15.60
2023-03-17T18:53:40.438Z,14.80
2023-03-17T18:55:18.551Z,14.00
2023-03-17T18:56:50.729Z,12.40
2023-03-17T18:58:23.317Z,12.80
2023-03-17T19:02:25.996Z,12.40
2023-03-17T19:03:59.735Z,13.60
2023-03-17T19:05:38.210Z,11.00
2023-03-17T19:07:14.853Z,13.40
2023-03-17T19:08:51.345Z,14.60
2023-03-17T19:10:24.340Z,18.00
2023-03-17T19:11:56.257Z,17.00
2023-03-17T19:13:29.457Z,16.00
2023-03-17T19:15:02.383Z,11.20
2023-03-17T19:16:34.717Z,15.20
2023-03-17T19:18:06.946Z,14.40
2023-03-17T19:19:38.997Z,11.00
2023-03-17T19:21:13.361Z,16.00
2023-03-17T19:22:47.654Z,14.80
2023-03-17T19:24:25.139Z,16.00
2023-03-17T19:25:58.842Z,17.40
2023-03-17T19:27:30.812Z,31.40
2023-03-17T19:29:02.812Z,50.75
2023-03-17T19:33:22.180Z,78.25
2023-03-17T19:34:54.070Z,84.50
2023-03-17T19:36:26.229Z,87.75
2023-03-17T19:37:58.224Z,91.00
2023-03-17T19:39:31.458Z,98.20
2023-03-17T19:41:03.939Z,104.40
2023-03-17T19:42:36.001Z,103.25
2023-03-17T19:44:07.941Z,107.00
2023-03-17T19:45:39.897Z,117.75
2023-03-17T19:47:36.956Z,116.50
2023-03-17T19:49:08.866Z,116.75
2023-03-17T19:51:05.742Z,114.75
2023-03-17T19:52:37.897Z,116.50
2023-03-17T19:54:14.977Z,136.75
2023-03-17T19:55:47.029Z,138.00
2023-03-17T19:57:22.183Z,143.50
2023-03-17T19:58:54.328Z,151.50
2023-03-17T20:00:26.826Z,156.00
2023-03-17T20:02:02.911Z,155.25
2023-03-17T20:03:35.608Z,157.00
2023-03-17T20:05:07.721Z,147.75
2023-03-17T20:06:39.685Z,149.75
2023-03-17T20:08:12.074Z,151.00
2023-03-17T20:10:14.484Z,162.75
2023-03-17T20:11:49.685Z,155.25
2023-03-17T20:13:26.017Z,166.50
2023-03-17T20:15:01.187Z,162.00
2023-03-17T20:16:41.509Z,178.00
2023-03-17T20:18:14.398Z,183.50
2023-03-17T20:19:50.257Z,186.25
2023-03-17T20:21:23.830Z,188.67
2023-03-17T20:23:02.211Z,180.75
2023-03-17T20:24:34.879Z,196.00
2023-03-17T20:26:07.783Z,193.67
2023-03-17T20:27:42.652Z,187.00
2023-03-17T20:29:17.637Z,182.00
2023-03-17T20:30:52.629Z,168.00
2023-03-17T20:32:24.819Z,180.50
2023-03-17T20:33:56.937Z,192.67
2023-03-17T20:35:29.333Z,185.50
2023-03-17T20:37:02.373Z,176.25
2023-03-17T20:38:37.058Z,170.25
2023-03-17T20:40:10.970Z,171.00
2023-03-17T20:41:42.967Z,165.00
2023-03-17T20:43:19.244Z,165.75
2023-03-17T20:44:56.890Z,160.25
2023-03-17T20:46:28.817Z,158.75
2023-03-17T20:48:02.113Z,154.75
2023-03-17T20:49:34.285Z,395.40
2023-03-17T20:51:06.575Z,310.00
2023-03-17T20:52:38.676Z,263.00
2023-03-17T20:54:11.324Z,235.25
2023-03-17T20:55:47.726Z,222.33
2023-03-17T20:57:19.728Z,199.67
2023-03-17T20:58:53.365Z,195.00
2023-03-17T21:00:32.170Z,192.00
2023-03-17T21:02:05.064Z,179.00
2023-03-17T21:03:40.160Z,174.75
2023-03-17T21:05:23.230Z,192.00
2023-03-17T21:06:55.085Z,175.25
2023-03-17T21:08:26.970Z,169.50
2023-03-17T21:10:02.083Z,171.25
2023-03-17T21:11:33.955Z,166.50
2023-03-17T21:13:06.673Z,159.75
2023-03-17T21:14:38.664Z,144.00
2023-03-17T21:16:21.805Z,144.00
2023-03-17T21:17:55.776Z,153.50
2023-03-17T21:19:27.789Z,142.00
2023-03-17T21:20:59.695Z,139.25
2023-03-17T21:22:34.220Z,133.75
2023-03-17T21:24:08.635Z,119.25
2023-03-17T21:25:43.492Z,133.00
2023-03-17T21:27:18.185Z,129.25
2023-03-17T21:28:53.361Z,126.75
2023-03-17T21:30:28.110Z,116.25
2023-03-17T21:32:05.493Z,124.25
2023-03-17T21:33:37.348Z,134.75
2023-03-17T21:35:09.709Z,139.25
2023-03-17T21:36:44.676Z,144.25
2023-03-17T21:38:18.230Z,145.00
2023-03-17T21:39:55.224Z,147.25
2023-03-17T21:41:33.396Z,144.00
2023-03-17T21:43:05.880Z,150.75
2023-03-17T21:44:45.869Z,151.50
2023-03-17T21:46:21.548Z,152.75
2023-03-17T21:47:53.728Z,142.25
2023-03-17T21:49:25.680Z,144.75
2023-03-17T21:50:57.934Z,141.75
2023-03-17T21:52:29.846Z,139.50
2023-03-17T21:54:02.349Z,140.25
2023-03-17T21:55:35.879Z,142.75
2023-03-17T21:57:07.798Z,137.00
2023-03-17T21:58:39.819Z,131.50
2023-03-17T22:00:13.549Z,127.75
2023-03-17T22:01:46.713Z,132.25
2023-03-17T22:03:43.439Z,121.25
2023-03-17T22:05:17.788Z,122.50
2023-03-17T22:06:52.171Z,126.25
2023-03-17T22:08:31.036Z,111.50
2023-03-17T22:10:06.405Z,130.75
2023-03-17T22:12:04.421Z,132.50
2023-03-17T22:13:36.325Z,144.00
2023-03-17T22:15:15.410Z,146.25
2023-03-17T22:16:48.450Z,137.00
2023-03-17T22:18:21.506Z,150.25
2023-03-17T22:19:54.281Z,150.25
2023-03-17T22:21:26.854Z,145.75
2023-03-17T22:23:02.429Z,138.00
2023-03-17T22:24:34.284Z,140.00
2023-03-17T22:26:06.739Z,138.50
2023-03-17T22:27:38.616Z,133.75
2023-03-17T22:29:12.513Z,173.75
2023-03-17T22:31:24.211Z,189.25
2023-03-17T22:32:58.195Z,166.25
2023-03-17T22:34:36.928Z,152.50
2023-03-17T22:36:12.504Z,131.75
2023-03-17T22:37:50.036Z,126.50
2023-03-17T22:39:21.932Z,108.25
2023-03-17T22:41:04.060Z,101.25
2023-03-17T22:42:35.978Z,127.00
2023-03-17T22:44:12.316Z,128.50
2023-03-17T22:45:49.796Z,119.50
2023-03-17T22:47:27.139Z,118.50
2023-03-17T22:49:03.131Z,131.25
2023-03-17T22:50:35.137Z,120.00
2023-03-17T22:52:07.144Z,119.50
2023-03-17T22:53:39.531Z,123.00
2023-03-17T22:55:36.712Z,121.50
2023-03-17T22:57:08.920Z,119.25
2023-03-17T22:59:06.055Z,123.00
2023-03-17T23:00:38.173Z,115.75
2023-03-17T23:02:35.812Z,116.50
2023-03-17T23:04:07.999Z,106.50
2023-03-17T23:05:47.886Z,110.25
2023-03-17T23:07:22.474Z,114.50
2023-03-17T23:08:56.307Z,105.00
2023-03-17T23:10:28.685Z,114.00
2023-03-17T23:12:00.739Z,103.60
2023-03-17T23:13:32.829Z,114.40
2023-03-17T23:15:05.327Z,98.40
2023-03-17T23:16:37.924Z,98.00
2023-03-17T23:18:11.656Z,100.80
2023-03-17T23:19:47.653Z,98.20
2023-03-17T23:21:26.951Z,97.60
2023-03-17T23:23:01.656Z,94.75
2023-03-17T23:24:33.541Z,95.00
2023-03-17T23:26:06.166Z,89.00
2023-03-17T23:27:38.792Z,91.75
2023-03-17T23:29:13.607Z,81.00
2023-03-17T23:30:50.441Z,83.25
2023-03-17T23:32:23.003Z,85.50
2023-03-17T23:33:55.004Z,80.25
